Allendale, SC

3:35 PM EDT on July 22, 2014 (GMT -0400)
Joe Miley Road (KSCBRUNS5) Elev 130 ft | 32.94 °N, 81.13 °W | Change Station

Current weather conditions updated 3 minutes ago

Partly Cloudy
Partly Cloudy
94.6 °F
Feels Like 109 °F
N
1.7
Wind Variable Wind from WSW

Today is forecast to be nearly the same temperature as yesterday.

Today
High -- | Low -- °F
--% Chance of Precip.
Yesterday
High -- | Low -- °F
Precip. -- in
6:31 AM 8:31 PM
Waning Crescent, 15% visible
Pressure 30.08 in
Visibility 10.0 miles
Clouds Scattered Clouds 4900 ft
Heat Index 109 °F
Dew Point 76 °F
Humidity 56%
Rainfall 0.02 in
Snow Depth Not available.
UV 9 out of 12
Pollen 3.10 out of 12
Air Quality Not available.
Flu Activity Sporadic
METAR KJYL 221915Z AUTO 00000KT 10SM SCT049 31/24 A3008 RMK AO2 T03050238

More Conditions Fewer Conditions

Pressure 30.08 in
Visibility 10.0 miles
Clouds Scattered Clouds 4900 ft
Heat Index 109 °F
Dew Point 76 °F
Humidity 56%
Rainfall 0.02 in
Snow Depth Not available.
UV 9 out of 12
Pollen 3.10 out of 12
Air Quality Not available.
Flu Activity Sporadic
METAR KJYL 221915Z AUTO 00000KT 10SM SCT049 31/24 A3008 RMK AO2 T03050238

More Conditions Fewer Conditions

10-Day Weather Forecast

Almanac

Astronomy

Jul. 22, 2014 Rise Set
Actual Time 6:31 AM EDT 8:31 PM EDT
Civil Twilight 6:04 AM EDT 8:58 PM EDT
Nautical Twilight 5:30 AM EDT 9:32 PM EDT
Astronomical Twilight 4:54 AM EDT 10:07 PM EDT
Moon 3:01 AM EDT 5:09 PM EDT
Length of Visible Light 14h 54m
Length of Day
13h 59m
Tomorrow will be 1m 15s shorter.
Waning Crescent, 15% of the Moon is Illuminated
Today
Waning Crescent
Jul 26
New
Aug 3
First Quarter
Aug 10
Full
Aug 17
Last Quarter

Today's Extremes

State Highs State Lows

Community

WunderPhotos

Upload Photos

1,736,341 photos uploaded!

Nearby

Snow Depth

Station Depth Elevation
No new snow has been reported.

Earthquake Activity

City Distance Mag. Time & Date
No recent earthquake activity has been reported nearby.
Minimum magnitude displayed is 2.5.

Coastal Water Temperatures

Place Temperature
No Stations Reporting

Nearby Weather Stations

Station Location Temp. Heat Index Dew Point Humidity Wind Precip. Elev Updated Type
Joe Miley Road, Brunson, SC 94.6 °F 109 °F 76 °F 56% WSW  at  1.7 mph - / hr 130 ft 3:31 PM EDT Normal
RAWS SAVRAW SC, Aiken, SC 89 °F 98 °F 74 °F 61% East  at  3 mph 0.00 in / hr 330 ft 2:06 PM EDT MADIS
Edisto Research Education Center, Blackville, SC 86.9 °F 96 °F 75 °F 68% SW  at  5.4 mph 0.00 in / hr 322 ft 3:34 PM EDT Rapid Fire

Show More Stations Show Fewer Stations